sensor_id;sensor_type;location;lat;lon;timestamp;temperature;humidity
66160;DHT22;52960;50.810;20.620;2022-07-05T00:00:01;24;79
66160;DHT22;52960;50.810;20.620;2022-07-05T00:07:36;24;80
66160;DHT22;52960;50.810;20.620;2022-07-05T00:14:15;24;80
66160;DHT22;52960;50.810;20.620;2022-07-05T00:21:04;24;80
66160;DHT22;52960;50.810;20.620;2022-07-05T00:28:18;24;80
66160;DHT22;52960;50.810;20.620;2022-07-05T00:35:04;24;80
66160;DHT22;52960;50.810;20.620;2022-07-05T00:42:04;24;80
66160;DHT22;52960;50.810;20.620;2022-07-05T00:49:08;24;80
66160;DHT22;52960;50.810;20.620;2022-07-05T00:56:03;24;80
66160;DHT22;52960;50.810;20.620;2022-07-05T01:00:02;24;80
66160;DHT22;52960;50.810;20.620;2022-07-05T01:07:23;27;75
66160;DHT22;52960;50.810;20.620;2022-07-05T01:14:19;27;75
66160;DHT22;52960;50.810;20.620;2022-07-05T01:21:02;27;75
66160;DHT22;52960;50.810;20.620;2022-07-05T01:28:17;27;75
66160;DHT22;52960;50.810;20.620;2022-07-05T01:35:07;26;70
66160;DHT22;52960;50.810;20.620;2022-07-05T01:42:18;26;70
66160;DHT22;52960;50.810;20.620;2022-07-05T01:49:05;26;70
66160;DHT22;52960;50.810;20.620;2022-07-05T01:56:03;26;70
66160;DHT22;52960;50.810;20.620;2022-07-05T02:00:01;26;70
66160;DHT22;52960;50.810;20.620;2022-07-05T02:07:18;25;75
66160;DHT22;52960;50.810;20.620;2022-07-05T02:14:13;25;75
66160;DHT22;52960;50.810;20.620;2022-07-05T02:21:03;25;75
66160;DHT22;52960;50.810;20.620;2022-07-05T02:28:06;25;75
66160;DHT22;52960;50.810;20.620;2022-07-05T02:35:18;25;78
66160;DHT22;52960;50.810;20.620;2022-07-05T02:42:17;25;78
66160;DHT22;52960;50.810;20.620;2022-07-05T02:49:13;25;78
66160;DHT22;52960;50.810;20.620;2022-07-05T02:56:14;25;78
66160;DHT22;52960;50.810;20.620;2022-07-05T03:00:17;25;78
66160;DHT22;52960;50.810;20.620;2022-07-05T03:07:03;24;81
66160;DHT22;52960;50.810;20.620;2022-07-05T03:14:03;24;81
66160;DHT22;52960;50.810;20.620;2022-07-05T03:21:02;24;81
66160;DHT22;52960;50.810;20.620;2022-07-05T03:28:04;24;81
66160;DHT22;52960;50.810;20.620;2022-07-05T03:35:20;24;83
66160;DHT22;52960;50.810;20.620;2022-07-05T03:42:07;24;83
66160;DHT22;52960;50.810;20.620;2022-07-05T03:49:05;24;83
66160;DHT22;52960;50.810;20.620;2022-07-05T03:56:03;24;83
66160;DHT22;52960;50.810;20.620;2022-07-05T04:00:16;24;83
66160;DHT22;52960;50.810;20.620;2022-07-05T04:07:16;23;88
66160;DHT22;52960;50.810;20.620;2022-07-05T04:14:18;23;88
66160;DHT22;52960;50.810;20.620;2022-07-05T04:21:05;23;88
66160;DHT22;52960;50.810;20.620;2022-07-05T04:28:04;23;88
66160;DHT22;52960;50.810;20.620;2022-07-05T04:35:21;23;89
66160;DHT22;52960;50.810;20.620;2022-07-05T04:42:18;23;89
66160;DHT22;52960;50.810;20.620;2022-07-05T04:49:18;23;89
66160;DHT22;52960;50.810;20.620;2022-07-05T04:56:17;23;89
66160;DHT22;52960;50.810;20.620;2022-07-05T05:00:20;23;89
66160;DHT22;52960;50.810;20.620;2022-07-05T05:07:15;23;89
66160;DHT22;52960;50.810;20.620;2022-07-05T05:14:15;23;89
66160;DHT22;52960;50.810;20.620;2022-07-05T05:21:17;23;89
66160;DHT22;52960;50.810;20.620;2022-07-05T05:28:16;23;89
66160;DHT22;52960;50.810;20.620;2022-07-05T05:35:10;23;89
66160;DHT22;52960;50.810;20.620;2022-07-05T05:42:19;23;89
66160;DHT22;52960;50.810;20.620;2022-07-05T05:49:18;23;89
66160;DHT22;52960;50.810;20.620;2022-07-05T05:56:18;23;89
66160;DHT22;52960;50.810;20.620;2022-07-05T06:00:09;23;89
66160;DHT22;52960;50.810;20.620;2022-07-05T06:07:04;23;89
66160;DHT22;52960;50.810;20.620;2022-07-05T06:14:16;23;89
66160;DHT22;52960;50.810;20.620;2022-07-05T06:21:17;23;89
66160;DHT22;52960;50.810;20.620;2022-07-05T06:28:10;23;89
66160;DHT22;52960;50.810;20.620;2022-07-05T06:35:12;23;89
66160;DHT22;52960;50.810;20.620;2022-07-05T06:42:13;23;89
66160;DHT22;52960;50.810;20.620;2022-07-05T06:49:03;23;89
66160;DHT22;52960;50.810;20.620;2022-07-05T06:56:13;23;89
66160;DHT22;52960;50.810;20.620;2022-07-05T07:00:21;23;89
66160;DHT22;52960;50.810;20.620;2022-07-05T07:14:03;23;90
66160;DHT22;52960;50.810;20.620;2022-07-05T07:21:16;23;90
66160;DHT22;52960;50.810;20.620;2022-07-05T07:28:08;23;90
66160;DHT22;52960;50.810;20.620;2022-07-05T07:35:14;22;90
66160;DHT22;52960;50.810;20.620;2022-07-05T07:42:02;22;90
66160;DHT22;52960;50.810;20.620;2022-07-05T07:49:05;22;90
66160;DHT22;52960;50.810;20.620;2022-07-05T07:56:03;22;90
66160;DHT22;52960;50.810;20.620;2022-07-05T08:00:15;22;90
66160;DHT22;52960;50.810;20.620;2022-07-05T08:07:04;22;90
66160;DHT22;52960;50.810;20.620;2022-07-05T08:14:15;22;90
66160;DHT22;52960;50.810;20.620;2022-07-05T08:21:41;22;90
66160;DHT22;52960;50.810;20.620;2022-07-05T08:28:02;22;90
66160;DHT22;52960;50.810;20.620;2022-07-05T08:42:15;22;90
66160;DHT22;52960;50.810;20.620;2022-07-05T08:49:07;22;90
66160;DHT22;52960;50.810;20.620;2022-07-05T08:56:08;22;90
66160;DHT22;52960;50.810;20.620;2022-07-05T09:00:03;22;90
66160;DHT22;52960;50.810;20.620;2022-07-05T09:14:29;22;91
66160;DHT22;52960;50.810;20.620;2022-07-05T09:21:30;22;91
66160;DHT22;52960;50.810;20.620;2022-07-05T09:28:21;22;91
66160;DHT22;52960;50.810;20.620;2022-07-05T09:42:27;22;91
66160;DHT22;52960;50.810;20.620;2022-07-05T09:49:25;22;91
66160;DHT22;52960;50.810;20.620;2022-07-05T09:56:05;22;91
66160;DHT22;52960;50.810;20.620;2022-07-05T10:00:19;22;91
66160;DHT22;52960;50.810;20.620;2022-07-05T10:14:26;22;91
66160;DHT22;52960;50.810;20.620;2022-07-05T10:21:26;22;91
66160;DHT22;52960;50.810;20.620;2022-07-05T10:28:09;22;91
66160;DHT22;52960;50.810;20.620;2022-07-05T10:35:06;22;91
66160;DHT22;52960;50.810;20.620;2022-07-05T10:42:10;22;91
66160;DHT22;52960;50.810;20.620;2022-07-05T10:49:20;22;91
66160;DHT22;52960;50.810;20.620;2022-07-05T10:56:12;22;91
66160;DHT22;52960;50.810;20.620;2022-07-05T11:00:23;22;91
66160;DHT22;52960;50.810;20.620;2022-07-05T11:14:50;22;92
66160;DHT22;52960;50.810;20.620;2022-07-05T11:21:35;22;92
66160;DHT22;52960;50.810;20.620;2022-07-05T11:28:24;22;92
66160;DHT22;52960;50.810;20.620;2022-07-05T11:35:41;22;92
66160;DHT22;52960;50.810;20.620;2022-07-05T11:42:02;22;92
66160;DHT22;52960;50.810;20.620;2022-07-05T11:49:23;22;92
66160;DHT22;52960;50.810;20.620;2022-07-05T11:56:03;22;92
66160;DHT22;52960;50.810;20.620;2022-07-05T12:00:03;22;92
66160;DHT22;52960;50.810;20.620;2022-07-05T12:14:24;22;92
66160;DHT22;52960;50.810;20.620;2022-07-05T12:21:14;22;92
66160;DHT22;52960;50.810;20.620;2022-07-05T12:28:11;22;92
66160;DHT22;52960;50.810;20.620;2022-07-05T12:35:38;22;92
66160;DHT22;52960;50.810;20.620;2022-07-05T12:42:05;23;91
66160;DHT22;52960;50.810;20.620;2022-07-05T12:49:19;23;91
66160;DHT22;52960;50.810;20.620;2022-07-05T13:00:23;23;91
66160;DHT22;52960;50.810;20.620;2022-07-05T13:14:17;24;89
66160;DHT22;52960;50.810;20.620;2022-07-05T13:21:16;24;89
66160;DHT22;52960;50.810;20.620;2022-07-05T13:28:18;24;89
66160;DHT22;52960;50.810;20.620;2022-07-05T13:35:04;24;89
66160;DHT22;52960;50.810;20.620;2022-07-05T13:42:06;25;87
66160;DHT22;52960;50.810;20.620;2022-07-05T13:49:23;25;87
66160;DHT22;52960;50.810;20.620;2022-07-05T13:56:03;25;87
66160;DHT22;52960;50.810;20.620;2022-07-05T14:00:04;25;87
66160;DHT22;52960;50.810;20.620;2022-07-05T14:07:03;25;87
66160;DHT22;52960;50.810;20.620;2022-07-05T14:14:16;25;86
66160;DHT22;52960;50.810;20.620;2022-07-05T14:21:15;25;86
66160;DHT22;52960;50.810;20.620;2022-07-05T14:28:08;25;86
66160;DHT22;52960;50.810;20.620;2022-07-05T14:35:20;25;86
66160;DHT22;52960;50.810;20.620;2022-07-05T14:42:16;26;86
66160;DHT22;52960;50.810;20.620;2022-07-05T14:49:18;26;86
66160;DHT22;52960;50.810;20.620;2022-07-05T14:56:16;26;86
66160;DHT22;52960;50.810;20.620;2022-07-05T15:00:26;26;86
66160;DHT22;52960;50.810;20.620;2022-07-05T15:07:05;26;86
66160;DHT22;52960;50.810;20.620;2022-07-05T15:14:18;24;75
66160;DHT22;52960;50.810;20.620;2022-07-05T15:21:16;24;75
66160;DHT22;52960;50.810;20.620;2022-07-05T15:28:13;24;75
66160;DHT22;52960;50.810;20.620;2022-07-05T15:35:07;24;75
66160;DHT22;52960;50.810;20.620;2022-07-05T15:42:20;24;75
66160;DHT22;52960;50.810;20.620;2022-07-05T15:49:21;24;75
66160;DHT22;52960;50.810;20.620;2022-07-05T15:56:17;24;75
66160;DHT22;52960;50.810;20.620;2022-07-05T16:00:20;24;75
66160;DHT22;52960;50.810;20.620;2022-07-05T16:07:04;24;75
66160;DHT22;52960;50.810;20.620;2022-07-05T16:14:17;24;75
66160;DHT22;52960;50.810;20.620;2022-07-05T16:21:20;24;75
66160;DHT22;52960;50.810;20.620;2022-07-05T16:28:03;24;75
66160;DHT22;52960;50.810;20.620;2022-07-05T16:35:05;24;75
66160;DHT22;52960;50.810;20.620;2022-07-05T16:42:07;24;75
66160;DHT22;52960;50.810;20.620;2022-07-05T16:49:19;24;75
66160;DHT22;52960;50.810;20.620;2022-07-05T16:56:22;24;75
66160;DHT22;52960;50.810;20.620;2022-07-05T17:00:22;24;75
66160;DHT22;52960;50.810;20.620;2022-07-05T17:07:06;24;75
66160;DHT22;52960;50.810;20.620;2022-07-05T17:21:10;24;76
66160;DHT22;52960;50.810;20.620;2022-07-05T17:28:16;24;76
66160;DHT22;52960;50.810;20.620;2022-07-05T17:35:14;24;76
66160;DHT22;52960;50.810;20.620;2022-07-05T17:42:04;24;76
66160;DHT22;52960;50.810;20.620;2022-07-05T17:49:18;24;76
66160;DHT22;52960;50.810;20.620;2022-07-05T17:56:10;24;76
66160;DHT22;52960;50.810;20.620;2022-07-05T18:00:12;24;76
66160;DHT22;52960;50.810;20.620;2022-07-05T18:07:15;24;76
66160;DHT22;52960;50.810;20.620;2022-07-05T18:21:20;24;75
66160;DHT22;52960;50.810;20.620;2022-07-05T18:28:14;24;75
66160;DHT22;52960;50.810;20.620;2022-07-05T18:35:03;24;75
66160;DHT22;52960;50.810;20.620;2022-07-05T18:49:18;24;77
66160;DHT22;52960;50.810;20.620;2022-07-05T18:56:19;24;77
66160;DHT22;52960;50.810;20.620;2022-07-05T19:00:00;24;77
66160;DHT22;52960;50.810;20.620;2022-07-05T19:21:16;24;76
66160;DHT22;52960;50.810;20.620;2022-07-05T19:28:04;24;76
66160;DHT22;52960;50.810;20.620;2022-07-05T19:35:04;24;76
66160;DHT22;52960;50.810;20.620;2022-07-05T19:49:04;24;76
66160;DHT22;52960;50.810;20.620;2022-07-05T19:56:07;24;76
66160;DHT22;52960;50.810;20.620;2022-07-05T20:00:10;24;76
66160;DHT22;52960;50.810;20.620;2022-07-05T20:07:14;24;76
66160;DHT22;52960;50.810;20.620;2022-07-05T20:21:20;24;76
66160;DHT22;52960;50.810;20.620;2022-07-05T20:28:15;24;76
66160;DHT22;52960;50.810;20.620;2022-07-05T20:35:05;24;76
66160;DHT22;52960;50.810;20.620;2022-07-05T20:49:19;24;76
66160;DHT22;52960;50.810;20.620;2022-07-05T20:56:03;24;76
66160;DHT22;52960;50.810;20.620;2022-07-05T21:00:26;24;76
66160;DHT22;52960;50.810;20.620;2022-07-05T21:07:04;24;76
66160;DHT22;52960;50.810;20.620;2022-07-05T21:21:02;24;75
66160;DHT22;52960;50.810;20.620;2022-07-05T21:28:03;24;75
66160;DHT22;52960;50.810;20.620;2022-07-05T21:35:18;24;75
66160;DHT22;52960;50.810;20.620;2022-07-05T21:49:05;24;75
66160;DHT22;52960;50.810;20.620;2022-07-05T21:56:02;24;75
66160;DHT22;52960;50.810;20.620;2022-07-05T22:07:17;24;75
66160;DHT22;52960;50.810;20.620;2022-07-05T22:14:03;24;74
66160;DHT22;52960;50.810;20.620;2022-07-05T22:21:07;24;74
66160;DHT22;52960;50.810;20.620;2022-07-05T22:28:07;24;74
66160;DHT22;52960;50.810;20.620;2022-07-05T22:35:09;24;74
66160;DHT22;52960;50.810;20.620;2022-07-05T22:42:03;24;74
66160;DHT22;52960;50.810;20.620;2022-07-05T22:49:03;24;74
66160;DHT22;52960;50.810;20.620;2022-07-05T22:56:05;24;74
66160;DHT22;52960;50.810;20.620;2022-07-05T23:07:02;24;75
66160;DHT22;52960;50.810;20.620;2022-07-05T23:14:15;24;75
66160;DHT22;52960;50.810;20.620;2022-07-05T23:21:03;24;75
66160;DHT22;52960;50.810;20.620;2022-07-05T23:28:16;24;75
66160;DHT22;52960;50.810;20.620;2022-07-05T23:42:15;24;75
66160;DHT22;52960;50.810;20.620;2022-07-05T23:49:03;24;75
66160;DHT22;52960;50.810;20.620;2022-07-05T23:56:05;24;75
